sensor_id;sensor_type;location;lat;lon;timestamp;pressure;altitude;pressure_sealevel;temperature;humidity
71165;BME280;58859;55.132;-1.586;2023-04-16T00:01:32;102052.22;;;11.67;100.00
71165;BME280;58859;55.132;-1.586;2023-04-16T00:04:00;102044.81;;;11.40;100.00
71165;BME280;58859;55.132;-1.586;2023-04-16T00:06:26;102050.81;;;11.63;100.00
71165;BME280;58859;55.132;-1.586;2023-04-16T00:08:52;102040.25;;;11.65;100.00
71165;BME280;58859;55.132;-1.586;2023-04-16T00:11:18;102042.19;;;11.51;100.00
71165;BME280;58859;55.132;-1.586;2023-04-16T00:13:43;102045.28;;;11.45;100.00
71165;BME280;58859;55.132;-1.586;2023-04-16T00:16:09;102045.97;;;11.59;100.00
71165;BME280;58859;55.132;-1.586;2023-04-16T00:18:34;102031.88;;;11.50;100.00
71165;BME280;58859;55.132;-1.586;2023-04-16T00:21:00;102039.44;;;11.64;100.00
71165;BME280;58859;55.132;-1.586;2023-04-16T00:23:25;102038.03;;;11.71;100.00
71165;BME280;58859;55.132;-1.586;2023-04-16T00:25:51;102037.84;;;11.95;100.00
71165;BME280;58859;55.132;-1.586;2023-04-16T00:28:17;102038.03;;;12.14;100.00
71165;BME280;58859;55.132;-1.586;2023-04-16T00:30:43;102035.22;;;12.06;100.00
71165;BME280;58859;55.132;-1.586;2023-04-16T00:33:08;102028.66;;;11.80;100.00
71165;BME280;58859;55.132;-1.586;2023-04-16T00:35:34;102032.81;;;11.82;100.00
71165;BME280;58859;55.132;-1.586;2023-04-16T00:37:59;102035.03;;;11.87;100.00
71165;BME280;58859;55.132;-1.586;2023-04-16T00:40:28;102020.44;;;11.95;100.00
71165;BME280;58859;55.132;-1.586;2023-04-16T00:42:54;102028.97;;;11.86;100.00
71165;BME280;58859;55.132;-1.586;2023-04-16T00:45:19;102027.69;;;11.92;100.00
71165;BME280;58859;55.132;-1.586;2023-04-16T00:47:45;102030.19;;;11.82;100.00
71165;BME280;58859;55.132;-1.586;2023-04-16T00:50:11;102027.25;;;11.65;100.00
71165;BME280;58859;55.132;-1.586;2023-04-16T00:52:37;102015.91;;;11.21;100.00
71165;BME280;58859;55.132;-1.586;2023-04-16T00:55:05;102027.41;;;11.52;100.00
71165;BME280;58859;55.132;-1.586;2023-04-16T00:57:31;102021.22;;;11.42;100.00
71165;BME280;58859;55.132;-1.586;2023-04-16T00:59:56;102019.56;;;11.41;100.00
71165;BME280;58859;55.132;-1.586;2023-04-16T01:02:22;102025.03;;;11.27;100.00
71165;BME280;58859;55.132;-1.586;2023-04-16T01:04:48;102011.63;;;11.53;100.00
71165;BME280;58859;55.132;-1.586;2023-04-16T01:07:14;102026.22;;;11.34;100.00
71165;BME280;58859;55.132;-1.586;2023-04-16T01:09:39;102022.56;;;11.25;100.00
71165;BME280;58859;55.132;-1.586;2023-04-16T01:12:05;102022.41;;;11.27;100.00
71165;BME280;58859;55.132;-1.586;2023-04-16T01:14:30;102017.44;;;11.13;100.00
71165;BME280;58859;55.132;-1.586;2023-04-16T01:17:03;102020.66;;;11.27;100.00
71165;BME280;58859;55.132;-1.586;2023-04-16T01:19:29;102009.09;;;11.85;100.00
71165;BME280;58859;55.132;-1.586;2023-04-16T01:22:00;102009.34;;;11.82;100.00
71165;BME280;58859;55.132;-1.586;2023-04-16T01:24:26;102024.28;;;11.47;100.00
71165;BME280;58859;55.132;-1.586;2023-04-16T01:26:52;102016.38;;;11.71;100.00
71165;BME280;58859;55.132;-1.586;2023-04-16T01:29:17;102016.81;;;11.65;100.00
71165;BME280;58859;55.132;-1.586;2023-04-16T01:31:42;102021.25;;;11.20;100.00
71165;BME280;58859;55.132;-1.586;2023-04-16T01:34:08;102018.63;;;11.31;100.00
71165;BME280;58859;55.132;-1.586;2023-04-16T01:36:33;102017.94;;;11.29;100.00
71165;BME280;58859;55.132;-1.586;2023-04-16T01:38:59;102019.94;;;11.36;100.00
71165;BME280;58859;55.132;-1.586;2023-04-16T01:41:24;102020.41;;;11.19;100.00
71165;BME280;58859;55.132;-1.586;2023-04-16T01:43:49;102020.75;;;11.48;100.00
71165;BME280;58859;55.132;-1.586;2023-04-16T01:46:28;102017.09;;;11.39;100.00
71165;BME280;58859;55.132;-1.586;2023-04-16T01:48:55;102020.13;;;11.55;100.00
71165;BME280;58859;55.132;-1.586;2023-04-16T01:51:21;102017.31;;;11.47;100.00
71165;BME280;58859;55.132;-1.586;2023-04-16T01:53:46;102010.13;;;11.07;100.00
71165;BME280;58859;55.132;-1.586;2023-04-16T01:56:11;102007.78;;;11.15;100.00
71165;BME280;58859;55.132;-1.586;2023-04-16T01:58:37;102004.78;;;10.64;100.00
71165;BME280;58859;55.132;-1.586;2023-04-16T02:01:03;102011.91;;;10.84;100.00
71165;BME280;58859;55.132;-1.586;2023-04-16T02:03:30;102005.25;;;10.80;100.00
71165;BME280;58859;55.132;-1.586;2023-04-16T02:05:55;102008.47;;;10.83;100.00
71165;BME280;58859;55.132;-1.586;2023-04-16T02:08:21;102010.59;;;10.78;100.00
71165;BME280;58859;55.132;-1.586;2023-04-16T02:10:48;102004.44;;;11.13;100.00
71165;BME280;58859;55.132;-1.586;2023-04-16T02:13:14;101985.59;;;10.54;100.00
71165;BME280;58859;55.132;-1.586;2023-04-16T02:15:45;101990.88;;;10.41;100.00
71165;BME280;58859;55.132;-1.586;2023-04-16T02:18:10;101996.88;;;10.42;100.00
71165;BME280;58859;55.132;-1.586;2023-04-16T02:20:39;101998.97;;;10.71;100.00
71165;BME280;58859;55.132;-1.586;2023-04-16T02:23:05;101999.34;;;10.78;100.00
71165;BME280;58859;55.132;-1.586;2023-04-16T02:25:30;102000.91;;;10.34;100.00
71165;BME280;58859;55.132;-1.586;2023-04-16T02:27:57;102003.50;;;10.11;100.00
71165;BME280;58859;55.132;-1.586;2023-04-16T02:30:22;101998.16;;;10.25;100.00
71165;BME280;58859;55.132;-1.586;2023-04-16T02:32:48;101997.19;;;10.15;100.00
71165;BME280;58859;55.132;-1.586;2023-04-16T02:35:14;102000.88;;;10.23;100.00
71165;BME280;58859;55.132;-1.586;2023-04-16T02:37:39;101998.97;;;10.25;100.00
71165;BME280;58859;55.132;-1.586;2023-04-16T02:40:05;102001.13;;;10.08;100.00
71165;BME280;58859;55.132;-1.586;2023-04-16T02:42:31;101994.88;;;10.10;100.00
71165;BME280;58859;55.132;-1.586;2023-04-16T02:44:56;101984.47;;;10.10;100.00
71165;BME280;58859;55.132;-1.586;2023-04-16T02:47:21;101992.22;;;9.99;100.00
71165;BME280;58859;55.132;-1.586;2023-04-16T02:49:47;101990.31;;;10.14;100.00
71165;BME280;58859;55.132;-1.586;2023-04-16T02:52:12;101973.00;;;10.36;100.00
71165;BME280;58859;55.132;-1.586;2023-04-16T02:54:37;101969.72;;;10.46;100.00
71165;BME280;58859;55.132;-1.586;2023-04-16T02:57:03;101978.97;;;10.50;100.00
71165;BME280;58859;55.132;-1.586;2023-04-16T02:59:30;101977.03;;;10.29;100.00
71165;BME280;58859;55.132;-1.586;2023-04-16T03:01:55;101975.56;;;10.14;100.00
71165;BME280;58859;55.132;-1.586;2023-04-16T03:04:21;101976.06;;;9.96;100.00
71165;BME280;58859;55.132;-1.586;2023-04-16T03:06:46;101978.78;;;10.05;100.00
71165;BME280;58859;55.132;-1.586;2023-04-16T03:09:11;101968.16;;;10.08;100.00
71165;BME280;58859;55.132;-1.586;2023-04-16T03:11:37;101981.19;;;10.43;100.00
71165;BME280;58859;55.132;-1.586;2023-04-16T03:14:02;101979.81;;;10.15;100.00
71165;BME280;58859;55.132;-1.586;2023-04-16T03:16:28;101984.19;;;10.15;100.00
71165;BME280;58859;55.132;-1.586;2023-04-16T03:18:53;101958.28;;;10.13;100.00
71165;BME280;58859;55.132;-1.586;2023-04-16T03:21:18;101985.13;;;10.14;100.00
71165;BME280;58859;55.132;-1.586;2023-04-16T03:23:44;101984.66;;;10.20;100.00
71165;BME280;58859;55.132;-1.586;2023-04-16T03:26:09;101981.78;;;10.12;100.00
71165;BME280;58859;55.132;-1.586;2023-04-16T03:28:34;101980.94;;;10.35;100.00
71165;BME280;58859;55.132;-1.586;2023-04-16T03:31:00;101985.34;;;10.46;100.00
71165;BME280;58859;55.132;-1.586;2023-04-16T03:33:25;101976.72;;;10.56;100.00
71165;BME280;58859;55.132;-1.586;2023-04-16T03:35:57;101979.44;;;10.44;100.00
71165;BME280;58859;55.132;-1.586;2023-04-16T03:38:24;101977.13;;;10.28;100.00
71165;BME280;58859;55.132;-1.586;2023-04-16T03:40:50;101981.44;;;10.51;100.00
71165;BME280;58859;55.132;-1.586;2023-04-16T03:43:16;101971.81;;;10.29;100.00
71165;BME280;58859;55.132;-1.586;2023-04-16T03:45:45;101986.59;;;10.29;100.00
71165;BME280;58859;55.132;-1.586;2023-04-16T03:48:11;101987.22;;;10.44;100.00
71165;BME280;58859;55.132;-1.586;2023-04-16T03:50:36;101980.94;;;10.11;100.00
71165;BME280;58859;55.132;-1.586;2023-04-16T03:53:02;101985.03;;;10.03;100.00
71165;BME280;58859;55.132;-1.586;2023-04-16T03:55:27;101975.19;;;10.19;100.00
71165;BME280;58859;55.132;-1.586;2023-04-16T03:57:53;101976.34;;;10.38;100.00
71165;BME280;58859;55.132;-1.586;2023-04-16T04:00:18;101966.16;;;10.24;100.00
71165;BME280;58859;55.132;-1.586;2023-04-16T04:02:44;101959.53;;;10.08;100.00
71165;BME280;58859;55.132;-1.586;2023-04-16T04:05:09;101967.25;;;10.09;100.00
71165;BME280;58859;55.132;-1.586;2023-04-16T04:07:34;101968.63;;;10.26;100.00
71165;BME280;58859;55.132;-1.586;2023-04-16T04:10:00;101969.75;;;10.57;100.00
71165;BME280;58859;55.132;-1.586;2023-04-16T04:12:25;101964.88;;;10.41;100.00
71165;BME280;58859;55.132;-1.586;2023-04-16T04:14:51;101959.44;;;10.44;100.00
71165;BME280;58859;55.132;-1.586;2023-04-16T04:17:16;101948.94;;;10.57;100.00
71165;BME280;58859;55.132;-1.586;2023-04-16T04:19:42;101962.53;;;10.49;100.00
71165;BME280;58859;55.132;-1.586;2023-04-16T04:22:07;101963.81;;;10.44;100.00
71165;BME280;58859;55.132;-1.586;2023-04-16T04:24:33;101953.44;;;10.55;100.00
71165;BME280;58859;55.132;-1.586;2023-04-16T04:26:58;101952.44;;;10.33;100.00
71165;BME280;58859;55.132;-1.586;2023-04-16T04:29:24;101954.56;;;10.28;100.00
71165;BME280;58859;55.132;-1.586;2023-04-16T04:31:49;101936.84;;;10.45;100.00
71165;BME280;58859;55.132;-1.586;2023-04-16T04:34:15;101952.56;;;10.32;100.00
71165;BME280;58859;55.132;-1.586;2023-04-16T04:36:40;101962.72;;;10.24;100.00
71165;BME280;58859;55.132;-1.586;2023-04-16T04:39:06;101958.59;;;10.32;100.00
71165;BME280;58859;55.132;-1.586;2023-04-16T04:41:31;101959.69;;;10.41;100.00
71165;BME280;58859;55.132;-1.586;2023-04-16T04:43:57;101959.94;;;10.49;100.00
71165;BME280;58859;55.132;-1.586;2023-04-16T04:46:22;101961.81;;;10.47;100.00
71165;BME280;58859;55.132;-1.586;2023-04-16T04:48:47;101968.34;;;10.53;100.00
71165;BME280;58859;55.132;-1.586;2023-04-16T04:51:13;101980.91;;;10.81;100.00
71165;BME280;58859;55.132;-1.586;2023-04-16T04:53:38;101972.72;;;11.08;100.00
71165;BME280;58859;55.132;-1.586;2023-04-16T04:56:04;101969.53;;;10.93;100.00
71165;BME280;58859;55.132;-1.586;2023-04-16T04:58:29;101977.81;;;10.76;100.00
71165;BME280;58859;55.132;-1.586;2023-04-16T05:00:55;101979.38;;;10.78;100.00
71165;BME280;58859;55.132;-1.586;2023-04-16T05:03:20;101967.38;;;10.76;100.00
71165;BME280;58859;55.132;-1.586;2023-04-16T05:05:46;101984.56;;;10.78;100.00
71165;BME280;58859;55.132;-1.586;2023-04-16T05:08:11;101984.22;;;10.94;100.00
71165;BME280;58859;55.132;-1.586;2023-04-16T05:10:37;101990.59;;;10.90;100.00
71165;BME280;58859;55.132;-1.586;2023-04-16T05:13:02;101989.41;;;11.05;100.00
71165;BME280;58859;55.132;-1.586;2023-04-16T05:15:28;101992.84;;;11.06;100.00
71165;BME280;58859;55.132;-1.586;2023-04-16T05:17:53;101987.03;;;11.13;100.00
71165;BME280;58859;55.132;-1.586;2023-04-16T05:20:21;101989.63;;;11.24;100.00
71165;BME280;58859;55.132;-1.586;2023-04-16T05:22:48;101980.06;;;11.14;100.00
71165;BME280;58859;55.132;-1.586;2023-04-16T05:25:14;101985.16;;;11.15;100.00
71165;BME280;58859;55.132;-1.586;2023-04-16T05:27:39;101961.00;;;11.13;100.00
71165;BME280;58859;55.132;-1.586;2023-04-16T05:30:05;101998.25;;;11.36;100.00
71165;BME280;58859;55.132;-1.586;2023-04-16T05:32:30;102001.25;;;11.20;100.00
71165;BME280;58859;55.132;-1.586;2023-04-16T05:34:56;101997.81;;;11.20;100.00
71165;BME280;58859;55.132;-1.586;2023-04-16T05:37:21;102001.59;;;11.27;100.00
71165;BME280;58859;55.132;-1.586;2023-04-16T05:39:47;102005.00;;;11.38;100.00
71165;BME280;58859;55.132;-1.586;2023-04-16T05:42:12;102006.78;;;11.27;100.00
71165;BME280;58859;55.132;-1.586;2023-04-16T05:44:38;102010.22;;;11.38;100.00
71165;BME280;58859;55.132;-1.586;2023-04-16T05:47:04;102014.34;;;11.41;100.00
71165;BME280;58859;55.132;-1.586;2023-04-16T05:49:31;102005.00;;;11.38;100.00
71165;BME280;58859;55.132;-1.586;2023-04-16T05:51:56;101998.72;;;11.63;100.00
71165;BME280;58859;55.132;-1.586;2023-04-16T05:54:22;102005.63;;;11.31;100.00
71165;BME280;58859;55.132;-1.586;2023-04-16T05:56:47;102000.75;;;11.37;100.00
71165;BME280;58859;55.132;-1.586;2023-04-16T05:59:12;102004.91;;;11.29;100.00
71165;BME280;58859;55.132;-1.586;2023-04-16T06:01:38;102011.91;;;11.28;100.00
71165;BME280;58859;55.132;-1.586;2023-04-16T06:04:03;102014.16;;;11.22;100.00
71165;BME280;58859;55.132;-1.586;2023-04-16T06:06:29;102009.66;;;11.24;100.00
71165;BME280;58859;55.132;-1.586;2023-04-16T06:08:54;102017.09;;;11.28;100.00
71165;BME280;58859;55.132;-1.586;2023-04-16T06:11:19;102009.06;;;11.31;100.00
71165;BME280;58859;55.132;-1.586;2023-04-16T06:13:45;102023.81;;;12.07;100.00
71165;BME280;58859;55.132;-1.586;2023-04-16T06:16:10;102026.03;;;12.64;100.00
71165;BME280;58859;55.132;-1.586;2023-04-16T06:18:36;102022.06;;;12.07;100.00
71165;BME280;58859;55.132;-1.586;2023-04-16T06:21:02;102023.00;;;11.75;100.00
71165;BME280;58859;55.132;-1.586;2023-04-16T06:23:28;102021.94;;;11.44;100.00
71165;BME280;58859;55.132;-1.586;2023-04-16T06:25:53;102032.50;;;11.31;100.00
71165;BME280;58859;55.132;-1.586;2023-04-16T06:28:18;102020.88;;;11.58;100.00
71165;BME280;58859;55.132;-1.586;2023-04-16T06:30:45;102022.78;;;11.22;100.00
71165;BME280;58859;55.132;-1.586;2023-04-16T06:33:10;102021.44;;;11.61;100.00
71165;BME280;58859;55.132;-1.586;2023-04-16T06:35:36;102024.78;;;11.41;100.00
71165;BME280;58859;55.132;-1.586;2023-04-16T06:38:01;102020.72;;;12.13;100.00
71165;BME280;58859;55.132;-1.586;2023-04-16T06:40:27;102026.38;;;13.01;100.00
71165;BME280;58859;55.132;-1.586;2023-04-16T06:42:52;102033.63;;;13.58;100.00
71165;BME280;58859;55.132;-1.586;2023-04-16T06:45:18;102018.25;;;13.74;100.00
71165;BME280;58859;55.132;-1.586;2023-04-16T06:47:43;102031.06;;;13.87;100.00
71165;BME280;58859;55.132;-1.586;2023-04-16T06:50:09;102027.31;;;13.51;100.00
71165;BME280;58859;55.132;-1.586;2023-04-16T06:52:35;102036.41;;;13.26;100.00
71165;BME280;58859;55.132;-1.586;2023-04-16T06:55:00;102028.66;;;13.15;100.00
71165;BME280;58859;55.132;-1.586;2023-04-16T06:57:26;102030.91;;;12.99;100.00
71165;BME280;58859;55.132;-1.586;2023-04-16T06:59:51;102028.06;;;12.81;100.00
71165;BME280;58859;55.132;-1.586;2023-04-16T07:02:17;102029.81;;;12.71;100.00
71165;BME280;58859;55.132;-1.586;2023-04-16T07:04:42;102034.19;;;12.71;100.00
71165;BME280;58859;55.132;-1.586;2023-04-16T07:07:07;102035.00;;;12.30;100.00
71165;BME280;58859;55.132;-1.586;2023-04-16T07:09:33;102038.19;;;12.33;100.00
71165;BME280;58859;55.132;-1.586;2023-04-16T07:11:58;102034.09;;;12.40;100.00
71165;BME280;58859;55.132;-1.586;2023-04-16T07:14:23;102033.00;;;12.54;100.00
71165;BME280;58859;55.132;-1.586;2023-04-16T07:16:49;102042.81;;;12.30;100.00
71165;BME280;58859;55.132;-1.586;2023-04-16T07:19:14;102039.00;;;12.54;100.00
71165;BME280;58859;55.132;-1.586;2023-04-16T07:21:40;102040.25;;;13.01;100.00
71165;BME280;58859;55.132;-1.586;2023-04-16T07:24:08;102039.41;;;12.91;100.00
71165;BME280;58859;55.132;-1.586;2023-04-16T07:26:34;102040.44;;;13.30;100.00
71165;BME280;58859;55.132;-1.586;2023-04-16T07:28:59;102046.22;;;13.34;100.00
71165;BME280;58859;55.132;-1.586;2023-04-16T07:31:25;102061.97;;;13.22;100.00
71165;BME280;58859;55.132;-1.586;2023-04-16T07:33:50;102067.66;;;13.37;100.00
71165;BME280;58859;55.132;-1.586;2023-04-16T07:36:16;102065.31;;;13.24;100.00
71165;BME280;58859;55.132;-1.586;2023-04-16T07:38:41;102069.69;;;13.64;100.00
71165;BME280;58859;55.132;-1.586;2023-04-16T07:41:07;102062.38;;;13.58;100.00
71165;BME280;58859;55.132;-1.586;2023-04-16T07:43:32;102064.09;;;13.38;100.00
71165;BME280;58859;55.132;-1.586;2023-04-16T07:45:57;102070.69;;;13.33;100.00
71165;BME280;58859;55.132;-1.586;2023-04-16T07:48:23;102073.72;;;13.38;100.00
71165;BME280;58859;55.132;-1.586;2023-04-16T07:50:48;102069.28;;;13.59;100.00
71165;BME280;58859;55.132;-1.586;2023-04-16T07:53:14;102071.28;;;13.95;100.00
71165;BME280;58859;55.132;-1.586;2023-04-16T07:55:39;102071.56;;;13.92;100.00
71165;BME280;58859;55.132;-1.586;2023-04-16T07:58:05;102072.03;;;14.35;100.00
71165;BME280;58859;55.132;-1.586;2023-04-16T08:00:32;102070.34;;;14.25;100.00
71165;BME280;58859;55.132;-1.586;2023-04-16T08:02:57;102059.09;;;14.44;100.00
71165;BME280;58859;55.132;-1.586;2023-04-16T08:05:23;102077.78;;;14.77;100.00
71165;BME280;58859;55.132;-1.586;2023-04-16T08:07:48;102068.75;;;15.36;100.00
71165;BME280;58859;55.132;-1.586;2023-04-16T08:10:14;102078.75;;;15.60;100.00
71165;BME280;58859;55.132;-1.586;2023-04-16T08:12:39;102081.47;;;15.31;100.00
71165;BME280;58859;55.132;-1.586;2023-04-16T08:15:06;102086.06;;;15.66;100.00
71165;BME280;58859;55.132;-1.586;2023-04-16T08:17:31;102081.91;;;16.08;100.00
71165;BME280;58859;55.132;-1.586;2023-04-16T08:19:58;102079.88;;;16.98;100.00
71165;BME280;58859;55.132;-1.586;2023-04-16T08:22:24;102070.97;;;16.91;100.00
71165;BME280;58859;55.132;-1.586;2023-04-16T08:24:51;102068.22;;;17.01;100.00
71165;BME280;58859;55.132;-1.586;2023-04-16T08:27:16;102076.25;;;17.25;100.00
71165;BME280;58859;55.132;-1.586;2023-04-16T08:29:42;102071.03;;;16.99;100.00
71165;BME280;58859;55.132;-1.586;2023-04-16T08:32:07;102079.63;;;17.43;100.00
71165;BME280;58859;55.132;-1.586;2023-04-16T08:34:35;102083.06;;;16.58;100.00
71165;BME280;58859;55.132;-1.586;2023-04-16T08:37:00;102070.78;;;16.49;100.00
71165;BME280;58859;55.132;-1.586;2023-04-16T08:39:26;102083.56;;;16.44;100.00
71165;BME280;58859;55.132;-1.586;2023-04-16T08:41:52;102089.59;;;15.74;100.00
71165;BME280;58859;55.132;-1.586;2023-04-16T08:44:26;102077.41;;;16.18;100.00
71165;BME280;58859;55.132;-1.586;2023-04-16T08:46:53;102092.94;;;16.12;100.00
71165;BME280;58859;55.132;-1.586;2023-04-16T08:49:24;102087.25;;;16.34;100.00
71165;BME280;58859;55.132;-1.586;2023-04-16T08:51:51;102086.78;;;16.21;100.00
71165;BME280;58859;55.132;-1.586;2023-04-16T08:56:48;102084.84;;;16.23;100.00
71165;BME280;58859;55.132;-1.586;2023-04-16T08:59:15;102092.03;;;16.21;100.00
71165;BME280;58859;55.132;-1.586;2023-04-16T09:01:41;102093.19;;;15.36;100.00
71165;BME280;58859;55.132;-1.586;2023-04-16T09:04:08;102092.81;;;16.31;100.00
71165;BME280;58859;55.132;-1.586;2023-04-16T09:06:33;102088.44;;;16.04;100.00
71165;BME280;58859;55.132;-1.586;2023-04-16T09:09:00;102079.22;;;16.00;100.00
71165;BME280;58859;55.132;-1.586;2023-04-16T09:11:29;102080.81;;;15.29;100.00
71165;BME280;58859;55.132;-1.586;2023-04-16T09:13:54;102067.13;;;16.07;100.00
71165;BME280;58859;55.132;-1.586;2023-04-16T09:16:22;102078.81;;;15.50;100.00
71165;BME280;58859;55.132;-1.586;2023-04-16T09:18:49;102071.59;;;15.79;100.00
71165;BME280;58859;55.132;-1.586;2023-04-16T09:21:15;102075.38;;;16.83;100.00
71165;BME280;58859;55.132;-1.586;2023-04-16T09:23:42;102079.31;;;16.87;100.00
71165;BME280;58859;55.132;-1.586;2023-04-16T09:26:07;102079.81;;;16.64;100.00
71165;BME280;58859;55.132;-1.586;2023-04-16T09:28:44;102082.22;;;16.40;100.00
71165;BME280;58859;55.132;-1.586;2023-04-16T09:31:12;102087.53;;;16.92;100.00
71165;BME280;58859;55.132;-1.586;2023-04-16T09:33:38;102078.59;;;17.02;100.00
71165;BME280;58859;55.132;-1.586;2023-04-16T09:36:04;102095.28;;;16.15;100.00
71165;BME280;58859;55.132;-1.586;2023-04-16T09:38:47;102092.00;;;16.65;100.00
71165;BME280;58859;55.132;-1.586;2023-04-16T09:41:13;102094.47;;;17.52;100.00
71165;BME280;58859;55.132;-1.586;2023-04-16T09:43:59;102090.91;;;16.76;100.00
71165;BME280;58859;55.132;-1.586;2023-04-16T09:46:40;102084.47;;;16.71;100.00
71165;BME280;58859;55.132;-1.586;2023-04-16T09:49:09;102087.31;;;16.42;100.00
71165;BME280;58859;55.132;-1.586;2023-04-16T09:51:39;102085.41;;;16.87;100.00
71165;BME280;58859;55.132;-1.586;2023-04-16T09:54:05;102081.97;;;18.04;100.00
71165;BME280;58859;55.132;-1.586;2023-04-16T09:56:31;102073.22;;;17.12;100.00
71165;BME280;58859;55.132;-1.586;2023-04-16T09:58:59;102078.97;;;16.46;100.00
71165;BME280;58859;55.132;-1.586;2023-04-16T10:01:24;102068.66;;;17.14;100.00
71165;BME280;58859;55.132;-1.586;2023-04-16T10:03:52;102076.31;;;17.07;100.00
71165;BME280;58859;55.132;-1.586;2023-04-16T10:06:19;102078.41;;;17.30;100.00
71165;BME280;58859;55.132;-1.586;2023-04-16T10:08:48;102081.03;;;17.55;100.00
71165;BME280;58859;55.132;-1.586;2023-04-16T10:11:15;102088.28;;;18.60;100.00
71165;BME280;58859;55.132;-1.586;2023-04-16T10:13:40;102079.16;;;17.48;100.00
71165;BME280;58859;55.132;-1.586;2023-04-16T10:16:09;102079.44;;;17.37;100.00
71165;BME280;58859;55.132;-1.586;2023-04-16T10:18:37;102084.34;;;17.06;100.00
71165;BME280;58859;55.132;-1.586;2023-04-16T10:21:03;102079.03;;;17.57;100.00
71165;BME280;58859;55.132;-1.586;2023-04-16T10:23:29;102086.34;;;16.25;100.00
71165;BME280;58859;55.132;-1.586;2023-04-16T10:25:56;102075.28;;;17.34;100.00
71165;BME280;58859;55.132;-1.586;2023-04-16T10:28:23;102083.72;;;17.46;100.00
71165;BME280;58859;55.132;-1.586;2023-04-16T10:30:50;102084.09;;;18.01;100.00
71165;BME280;58859;55.132;-1.586;2023-04-16T10:33:28;102079.44;;;17.37;100.00
71165;BME280;58859;55.132;-1.586;2023-04-16T10:36:11;102083.22;;;17.68;100.00
71165;BME280;58859;55.132;-1.586;2023-04-16T10:38:38;102081.53;;;18.73;100.00
71165;BME280;58859;55.132;-1.586;2023-04-16T10:41:06;102087.09;;;18.94;100.00
71165;BME280;58859;55.132;-1.586;2023-04-16T10:43:37;102089.56;;;17.99;100.00
71165;BME280;58859;55.132;-1.586;2023-04-16T10:46:23;102096.34;;;17.34;100.00
71165;BME280;58859;55.132;-1.586;2023-04-16T10:48:53;102090.81;;;17.79;100.00
71165;BME280;58859;55.132;-1.586;2023-04-16T10:51:23;102091.78;;;17.78;100.00
71165;BME280;58859;55.132;-1.586;2023-04-16T10:53:50;102087.59;;;18.25;100.00
71165;BME280;58859;55.132;-1.586;2023-04-16T10:56:25;102095.16;;;18.12;100.00
71165;BME280;58859;55.132;-1.586;2023-04-16T10:58:54;102086.00;;;18.57;100.00
71165;BME280;58859;55.132;-1.586;2023-04-16T11:01:32;102091.19;;;18.00;100.00
71165;BME280;58859;55.132;-1.586;2023-04-16T11:03:59;102091.38;;;18.07;100.00
71165;BME280;58859;55.132;-1.586;2023-04-16T11:06:27;102077.34;;;19.11;100.00
71165;BME280;58859;55.132;-1.586;2023-04-16T11:08:53;102080.81;;;17.99;100.00
71165;BME280;58859;55.132;-1.586;2023-04-16T11:11:19;102077.75;;;18.84;100.00
71165;BME280;58859;55.132;-1.586;2023-04-16T11:13:45;102083.47;;;19.04;100.00
71165;BME280;58859;55.132;-1.586;2023-04-16T11:16:14;102076.94;;;19.38;100.00
71165;BME280;58859;55.132;-1.586;2023-04-16T11:18:40;102069.81;;;19.47;100.00
71165;BME280;58859;55.132;-1.586;2023-04-16T11:21:10;102073.44;;;20.07;100.00
71165;BME280;58859;55.132;-1.586;2023-04-16T11:23:51;102065.94;;;19.27;100.00
71165;BME280;58859;55.132;-1.586;2023-04-16T11:26:27;102075.56;;;18.15;100.00
71165;BME280;58859;55.132;-1.586;2023-04-16T11:28:54;102066.69;;;18.24;100.00
71165;BME280;58859;55.132;-1.586;2023-04-16T11:31:21;102070.06;;;19.13;100.00
71165;BME280;58859;55.132;-1.586;2023-04-16T11:33:47;102067.66;;;18.87;100.00
71165;BME280;58859;55.132;-1.586;2023-04-16T11:36:13;102076.09;;;18.34;100.00
71165;BME280;58859;55.132;-1.586;2023-04-16T11:38:39;102075.06;;;18.11;100.00
71165;BME280;58859;55.132;-1.586;2023-04-16T11:41:08;102071.59;;;18.11;100.00
71165;BME280;58859;55.132;-1.586;2023-04-16T11:43:35;102079.09;;;18.56;100.00
71165;BME280;58859;55.132;-1.586;2023-04-16T11:46:02;102067.84;;;19.80;100.00
71165;BME280;58859;55.132;-1.586;2023-04-16T11:51:15;102065.81;;;19.59;100.00
71165;BME280;58859;55.132;-1.586;2023-04-16T11:53:51;102065.22;;;19.49;100.00
71165;BME280;58859;55.132;-1.586;2023-04-16T11:56:26;102077.38;;;19.58;100.00
71165;BME280;58859;55.132;-1.586;2023-04-16T11:59:11;102078.66;;;19.07;100.00
71165;BME280;58859;55.132;-1.586;2023-04-16T12:01:39;102088.63;;;18.73;100.00
71165;BME280;58859;55.132;-1.586;2023-04-16T12:04:05;102082.06;;;19.71;100.00
71165;BME280;58859;55.132;-1.586;2023-04-16T12:06:30;102086.50;;;19.39;100.00
71165;BME280;58859;55.132;-1.586;2023-04-16T12:08:57;102078.53;;;18.84;100.00
71165;BME280;58859;55.132;-1.586;2023-04-16T12:11:41;102089.38;;;20.45;100.00
71165;BME280;58859;55.132;-1.586;2023-04-16T12:14:11;102084.84;;;19.77;100.00
71165;BME280;58859;55.132;-1.586;2023-04-16T12:16:37;102079.47;;;20.16;100.00
71165;BME280;58859;55.132;-1.586;2023-04-16T12:19:03;102079.66;;;21.27;100.00
71165;BME280;58859;55.132;-1.586;2023-04-16T12:21:43;102074.44;;;21.84;100.00
71165;BME280;58859;55.132;-1.586;2023-04-16T12:24:11;102080.75;;;19.44;100.00
71165;BME280;58859;55.132;-1.586;2023-04-16T12:26:44;102071.50;;;20.47;100.00
71165;BME280;58859;55.132;-1.586;2023-04-16T12:29:18;102075.38;;;19.91;100.00
71165;BME280;58859;55.132;-1.586;2023-04-16T12:31:45;102076.59;;;19.49;100.00
71165;BME280;58859;55.132;-1.586;2023-04-16T12:34:12;102081.84;;;18.38;100.00